Nijar, Spain
Current Conditions -  °F | °C
As of 3:00 PM on Monday 20 Oct 2014 (Local Time) from LEAM Reporting Station
Clear Clear  
Wind Chill: 90°   Ceiling: Unl
Heat Index: 90°   Visibility: 6mi
Dew Point: 55°   Wind: 15mph
Humidity: 31%   Direction: 70°ENE
Pressure: 30.09"   Gusts: NA
Location:  36.97°N, 2.21°W
Report Text: LEAM 201300Z 07013KT 040V100 CAVOK 32/13 Q1019
Loading
Personal Weather Stations






























Interactive Weather Map
Tropical Storm Tracking
New forecast layout! Learn more

10-Day Weather Forecast

Advertisements
Track Severe Weather on mobile